Highlands Peak, California Weather observations

Data are for observation ending at time listed.
 Day   Time    Ave.   Ave.  Ave.  Vector   Max.   Stn.    Total    Solar   Ave.  
  of    of     Air    Rel.  Wind   Wind    Wind   Baro.  Precip.   Rad.    Soil  
Year   Day     Temp.  Hum.  Speed  Dir.    Gust   Pres.                    Temp. 
2026   (PST)    F      %     mph   deg.    mph     mb.     in.     W/m2     F   
------------------------------------------------------------------------------
 122   18:40   45.4   108    4.8   226      6.9   924.7    0.00       9    69.0
 122   18:50   45.3   108    3.5   229      5.3   924.7    0.00       4    68.9
 122   19:00   45.3   108    1.6   224      3.9   924.7    0.00       1    68.8
 122   19:10   45.3   108    1.8   212      3.1   924.6    0.00       0    68.7
 122   19:20   45.3   108    2.5   198      4.0   924.6    0.00       0    68.6
 122   19:30   45.2   108    2.6   205      5.1   924.7    0.00       0    68.5
 122   19:40   45.2   108    4.8   210      7.1   924.9    0.00       0    68.4
 122   19:50   45.0   108    4.5   214      7.2   925.1    0.00       0    68.3
 122   20:00   44.9   108    3.3   217      5.9   925.3    0.00       0    68.2
 122   20:10   44.9   108    3.6   207      5.7   925.4    0.00       0    68.1
 122   20:20   44.8   108    2.0   214      4.5   925.5    0.00       0    67.9
 122   20:30   45.0   109    1.8   216      3.6   925.5    0.00       0    67.9
 122   20:40   44.9   109    0.8   115      2.0   925.4    0.00       0    67.8
 122   20:50   45.0   109    0.4   171      1.9   925.3    0.00       0    67.7
 122   21:00   44.8   109    2.0   200      3.4   925.3    0.00       0    67.5
 122   21:10   44.5   109    1.3   297      3.3   925.2    0.00       0    67.4
 122   21:20   44.6   109    0.5   214      2.5   925.1    0.00       0    67.4
 122   21:30   44.8   109    0.4   259      1.6   925.1    0.00       0    67.2
 122   21:40   44.8   109    1.5   236      3.0   925.1    0.00       0    67.2
 122   21:50   44.3   109    0.8   223      2.6   925.0    0.00       0    67.0
 122   22:00   44.2   109    1.6   177      3.0   925.0    0.00       0    67.0
 122   22:10   44.2   109    1.1   142      2.7   925.0    0.00       0    66.9
 122   22:20   44.2   109    1.7   115      3.3   925.0    0.00       0    66.8
 122   22:30   44.0   109    1.4   143      2.9   925.0    0.00       0    66.7
 122   22:40   43.9   110    2.5    92      5.3   925.0    0.00       0    66.6
 122   22:50   43.8   110    0.7    48      1.5   924.9    0.00       0    66.5
 122   23:00   44.0   110    0.8    80      2.0   925.0    0.00       0    66.4
 122   23:10   44.1   110    1.2   118      2.2   925.1    0.00       0    66.3
 122   23:20   44.3   110    0.3   185      2.6   925.2    0.00       0    66.3
 122   23:30   44.3   110    1.4   145      2.7   925.2    0.00       0    66.2
 122   23:40   44.5   110    1.5   164      3.1   925.3    0.00       0    66.1
 122   23:50   44.4   110    1.9   156      3.5   925.3    0.00       0    66.0
 123    0:00   44.3   110    1.2   146      3.9   925.3    0.00       0    65.9
 123    0:10   44.2   110    2.2   139      3.8   925.4    0.00       0    65.8
 123    0:20   43.9   110    1.4   130      3.2   925.3    0.00       0    65.8
 123    0:30   43.9   110    2.5   139      4.7   925.3    0.00       0    65.7
 123    0:40   44.0   110    2.4   150      5.3   925.3    0.00       0    65.6
 123    0:50   44.1   110    1.8   144      3.6   925.2    0.00       0    65.5
 123    1:00   43.9   110    1.3   129      3.1   925.1    0.00       0    65.5
 123    1:10   44.0   110    1.1   126      2.3   925.0    0.00       0    65.4
 123    1:20   43.9   110    2.5   142      3.9   924.9    0.00       0    65.3
 123    1:30   43.6   110    2.5   132      4.0   924.9    0.00       0    65.2
 123    1:40   43.7   110    1.4   123      3.8   924.9    0.00       0    65.2
 123    1:50   43.6   110    3.6   137      5.8   924.8    0.00       0    65.1
 123    2:00   43.5   110    2.9   120      5.3   924.8    0.00       0    65.0
 123    2:10   43.5   110    3.0    89      5.2   924.7    0.00       0    65.0
 123    2:20   43.4   110    3.9    67      5.6   924.7    0.00       0    64.9
 123    2:30   43.4   110    6.0    61      7.5   924.6    0.00       0    64.9
 123    2:40   43.2   110    4.5    72      7.4   924.8    0.00       0    64.8
 123    2:50   43.2   110    3.6    75      5.3   924.8    0.00       0    64.7
 123    3:00   43.3   110    3.4   103      5.7   924.8    0.00       0    64.6
 123    3:10   43.2   110    2.5    79      3.4   924.7    0.00       0    64.5
 123    3:20   43.1   110    0.9    30      2.4   924.7    0.00       0    64.4
 123    3:30   43.2   110    0.2   208      1.2   924.7    0.00       0    64.3
 123    3:40   43.2   110    0.3   334      2.0   924.7    0.00       0    64.3
 123    3:50   43.3   110    2.2   305      2.9   924.6    0.00       0    64.2
 123    4:00   43.4   110    2.3   274      3.3   924.6    0.00       0    64.1
 123    4:10   43.3   110    3.0   228      6.1   924.8    0.00       0    64.0
 123    4:20   43.2   110    0.9   273      2.3   924.8    0.00       0    63.9
 123    4:30   43.4   110    1.3   268      2.3   924.8    0.00       0    63.9
 123    4:40   43.6   110    2.1   281      3.1   924.8    0.00       0    63.8
 123    4:50   43.7   110    2.2   242      3.8   924.9    0.00       0    63.7
 123    5:00   43.7   110    1.8   268      3.7   925.1    0.00       0    63.6
 123    5:10   43.6   110    1.2   315      2.0   925.1    0.00       1    63.6
 123    5:20   43.6   110    2.5   302      3.4   925.1    0.00       2    63.5
 123    5:30   43.6   110    2.5   275      3.9   925.1    0.00       4    63.4
 123    5:40   43.7   110    3.3   236      4.7   925.3    0.00       8    63.3
 123    5:50   43.7   110    1.8   231      3.5   925.5    0.00      11    63.3
 123    6:00   43.8   110    0.3   258      1.2   925.5    0.00      16    63.2
 123    6:10   44.0   110    2.1    41      4.4   925.5    0.00      33    63.2
 123    6:20   44.3   110    1.6   207      2.9   925.6    0.00      32    63.1
 123    6:30   44.3   110    1.8   225      3.0   925.8    0.00      33    63.0
 123    6:40   44.5   110    1.4   205      2.9   925.9    0.00      40    63.0
 123    6:50   44.7   110    2.3   218      4.7   926.0    0.00      36    62.9
 123    7:00   44.1   110    8.1   222     16.1   926.0    0.03      34    62.7
 123    7:10   42.7   110    9.1   226     12.1   926.2    0.01      44    62.1
 123    7:20   42.6   110    6.9   234      9.6   926.4    0.00      61    61.8
 123    7:30   42.6   110    6.0   240      8.1   926.6    0.00      80    61.7
 123    7:40   42.8   110    4.7   242      7.5   926.6    0.00      95    61.6
 123    7:50   43.1   110    3.6   250      5.7   926.6    0.00     114    61.6
 123    8:00   42.9   110    3.3   249      7.9   926.7    0.00     123    61.5
 123    8:10   42.9   110    2.5   281      5.5   926.6    0.01     129    61.5
 123    8:20   43.2   110    1.8   273      4.0   926.7    0.00     148    61.4
 123    8:30   43.8   110    2.2   251      4.5   926.8    0.00     204    61.4
 123    8:40   44.4   110    0.8   196      3.1   926.8    0.00     219    61.3
 123    8:50   44.6   110    2.6   244      7.7   926.9    0.00     197    61.3
 123    9:00   44.7   110    3.7   244      6.4   927.0    0.00     222    61.2
 123    9:10   45.1   110    3.6   222      8.1   927.1    0.00     258    61.2
 123    9:20   44.6   110    5.7   230      8.3   927.2    0.00     288    61.1
 123    9:30   44.8   110    4.1   244      6.6   927.1    0.00     332    61.1
 123    9:40   45.0   110    4.9   233      7.3   927.1    0.00     367    61.1
 123    9:50   45.8   105    5.3   222      8.2   927.2    0.00     437    61.1
 123   10:00   46.1   100    5.0   225      8.3   927.2    0.00     434    61.1
 123   10:10   46.7    96    5.4   215      8.4   927.3    0.00     360    61.0
 123   10:20   46.7    90    5.3   216      9.1   927.4    0.00     326    61.1
 123   10:30   47.2    88    4.4   220      8.4   927.3    0.00     423    61.1
 123   10:40   47.3    83    4.8   219     11.1   927.4    0.00     427    61.1
 123   10:50   47.6    84    6.7   227     10.4   927.4    0.00     506    61.1
 123   11:00   47.7    82    6.9   224     11.4   927.4    0.00     538    61.1
 123   11:10   48.1    80    4.6   219     10.1   927.5    0.00     498    61.2
 123   11:20   48.0    75    4.8   253      8.8   927.5    0.00     511    61.2
 123   11:30   48.3    77    8.1   226     12.4   927.5    0.00     527    61.2
 123   11:40   48.8    74    7.0   209     11.3   927.8    0.00     579    61.2
 123   11:50   48.8    72    7.3   213     11.5   927.8    0.00     668    61.2
 123   12:00   49.0    73    8.1   218     14.2   927.6    0.00     612    61.3
 123   12:10   49.3    73    8.3   222     11.7   927.6    0.00     669    61.3
 123   12:20   49.9    71    9.3   220     13.9   927.5    0.00     974    61.3
 123   12:30   50.1    70    8.4   232     14.4   927.4    0.00     725    61.4
 123   12:40   50.0    68    7.0   208     12.3   927.4    0.00     683    61.4
 123   12:50   51.9    67    4.2   233     11.6   927.5    0.00     825    61.5
 123   13:00   51.2    66    6.1   227     12.3   927.5    0.00     446    61.6
 123   13:10   50.8    70    8.0   221     12.5   927.4    0.00     702    61.7
 123   13:20   51.0    70    7.9   218     12.9   927.6    0.00    1097    61.8
 123   13:30   51.6    68    8.1   222     12.1   927.5    0.00     994    61.9
 123   13:40   51.2    68    7.5   223     13.6   927.4    0.00     957    62.0
 123   13:50   51.9    67    7.7   229     12.2   927.5    0.00     926    62.2
 123   14:00   51.7    66    6.7   204     10.4   927.5    0.00     893    62.3
 123   14:10   52.1    67    7.2   221     12.6   927.5    0.00     765    62.5
 123   14:20   51.1    70    7.8   224     11.2   927.4    0.00     677    62.7
 123   14:30   51.9    70    7.3   223     12.6   927.3    0.00     904    62.9
 123   14:40   51.9    71    7.7   223     12.4   927.2    0.00     769    63.1
 123   14:50   51.7    74    7.0   208     12.5   927.2    0.00     882    63.4
 123   15:00   51.9    75    7.4   222     11.2   927.2    0.00     774    63.6
 123   15:10   51.1    78    6.9   217     10.2   927.2    0.00     499    63.9
 123   15:20   51.2    77    5.3   213      9.7   927.2    0.00     592    64.0
 123   15:30   51.7    71    7.7   220     11.3   927.3    0.00     468    64.2
 123   15:40   50.8    67    8.4   222     14.8   927.3    0.00     372    64.4
 123   15:50   50.0    68    7.5   217     11.0   927.3    0.00     333    64.6
 123   16:00   49.9    69    6.1   221      9.6   927.3    0.00     390    64.7
 123   16:10   50.5    66    4.8   224      8.6   927.2    0.00     444    64.7
 123   16:20   51.0    65    6.5   237     10.5   927.1    0.00     552    64.8
 123   16:30   51.5    68    6.0   231     12.2   927.2    0.00     494    64.9
 123   16:40   51.3    67    7.4   215     11.3   927.2    0.00     444    65.0
 123   16:50   51.1    65    6.8   230     10.7   927.2    0.00     410    65.1
 123   17:00   51.5    69    7.0   208      9.6   927.2    0.00     376    65.2
 123   17:10   50.8    73    6.7   224     10.2   927.3    0.00     316    65.3
 123   17:20   50.2    76    5.4   220      9.4   927.3    0.00     295    65.3
 123   17:30   51.2    74    5.9   236      9.2   927.3    0.00     277    65.3
 123   17:40   50.1    77    5.8   224     10.4   927.2    0.00     292    65.4
 123   17:50   50.0    79    6.3   222     10.8   927.2    0.00     257    65.4
 123   18:00   49.2    82    5.9   224      9.6   927.2    0.00     170    65.4
 123   18:10   48.8    85    5.2   220      8.8   927.2    0.00     163    65.4
 123   18:20   48.1    86    6.4   236      8.8   927.2    0.00      88    65.4
 123   18:30   48.1    85    4.2   245      6.4   927.3    0.00      74    65.5

Return to Highlands Peak graphs page.


Western Regional Climate Center,wrcc@dri.edu